createdAt,value
2018-05-29T00:01:10.248Z,19.50
2018-05-29T00:03:40.821Z,19.27
2018-05-29T00:06:09.359Z,19.47
2018-05-29T00:08:38.507Z,19.83
2018-05-29T00:11:07.829Z,19.03
2018-05-29T00:13:36.847Z,19.70
2018-05-29T00:16:07.967Z,20.77
2018-05-29T00:18:36.833Z,19.60
2018-05-29T00:21:04.537Z,19.90
2018-05-29T00:23:33.819Z,20.87
2018-05-29T00:26:02.652Z,19.70
2018-05-29T00:28:32.219Z,20.20
2018-05-29T00:31:02.478Z,19.23
2018-05-29T00:33:31.118Z,20.37
2018-05-29T00:36:00.160Z,19.33
2018-05-29T00:38:29.322Z,20.40
2018-05-29T00:40:59.577Z,19.00
2018-05-29T00:43:27.755Z,18.57
2018-05-29T00:45:57.021Z,18.63
2018-05-29T00:48:25.951Z,19.07
2018-05-29T00:50:55.613Z,19.53
2018-05-29T00:53:24.754Z,19.23
2018-05-29T00:55:53.730Z,19.67
2018-05-29T00:58:22.702Z,20.33
2018-05-29T01:00:53.350Z,20.13
2018-05-29T01:03:22.858Z,21.43
2018-05-29T01:05:52.231Z,21.23
2018-05-29T01:08:22.332Z,20.40
2018-05-29T01:10:51.454Z,21.17
2018-05-29T01:13:21.173Z,19.37
2018-05-29T01:15:50.280Z,19.77
2018-05-29T01:18:19.778Z,21.63
2018-05-29T01:20:49.444Z,20.97
2018-05-29T01:23:19.372Z,21.30
2018-05-29T01:25:48.674Z,20.90
2018-05-29T01:28:18.307Z,22.23
2018-05-29T01:30:48.862Z,21.53
2018-05-29T01:33:17.788Z,21.50
2018-05-29T01:35:46.940Z,20.57
2018-05-29T01:38:16.836Z,21.10
2018-05-29T01:40:46.548Z,21.20
2018-05-29T01:43:14.958Z,21.70
2018-05-29T01:45:45.247Z,22.27
2018-05-29T01:48:14.253Z,21.60
2018-05-29T01:50:43.528Z,21.83
2018-05-29T01:53:11.251Z,21.83
2018-05-29T01:55:38.899Z,21.73
2018-05-29T01:58:08.951Z,21.97
2018-05-29T02:00:37.346Z,22.13
2018-05-29T02:03:05.113Z,21.63
2018-05-29T02:05:33.745Z,22.43
2018-05-29T02:08:03.466Z,21.93
2018-05-29T02:10:32.209Z,22.53
2018-05-29T02:13:01.586Z,21.63
2018-05-29T02:15:32.829Z,21.27
2018-05-29T02:18:02.291Z,21.07
2018-05-29T02:20:32.090Z,21.30
2018-05-29T02:23:00.805Z,21.67
2018-05-29T02:25:30.129Z,22.67
2018-05-29T02:27:59.323Z,23.33
2018-05-29T02:30:28.873Z,22.20
2018-05-29T02:32:58.738Z,21.83
2018-05-29T02:35:26.364Z,21.47
2018-05-29T02:37:54.284Z,22.73
2018-05-29T02:40:23.929Z,22.63
2018-05-29T02:42:53.270Z,22.30
2018-05-29T02:45:22.251Z,23.73
2018-05-29T02:47:51.464Z,23.67
2018-05-29T02:50:20.941Z,22.53
2018-05-29T02:52:50.729Z,22.47
2018-05-29T02:55:20.303Z,23.60
2018-05-29T02:57:49.673Z,22.90
2018-05-29T03:00:20.228Z,21.80
2018-05-29T03:02:48.998Z,21.27
2018-05-29T03:05:17.505Z,23.23
2018-05-29T03:07:45.194Z,22.87
2018-05-29T03:10:14.405Z,23.10
2018-05-29T03:12:43.141Z,22.83
2018-05-29T03:15:10.867Z,24.30
2018-05-29T03:17:38.752Z,24.10
2018-05-29T03:20:07.489Z,23.37
2018-05-29T03:22:38.451Z,23.30
2018-05-29T03:25:08.550Z,24.03
2018-05-29T03:27:39.279Z,23.83
2018-05-29T03:30:09.106Z,25.03
2018-05-29T03:32:38.484Z,24.60
2018-05-29T03:35:09.029Z,24.57
2018-05-29T03:37:37.456Z,24.93
2018-05-29T03:40:05.154Z,24.43
2018-05-29T03:42:33.735Z,23.87
2018-05-29T03:45:01.412Z,24.53
2018-05-29T03:47:30.008Z,23.70
2018-05-29T03:50:00.862Z,25.07
2018-05-29T03:52:30.466Z,23.07
2018-05-29T03:55:01.485Z,24.83
2018-05-29T03:57:31.307Z,22.80
2018-05-29T04:00:00.840Z,23.37
2018-05-29T04:02:29.246Z,23.73
2018-05-29T04:04:59.186Z,24.40
2018-05-29T04:07:29.482Z,23.60
2018-05-29T04:10:00.115Z,23.47
2018-05-29T04:12:28.386Z,23.50
2018-05-29T04:14:57.489Z,24.80
2018-05-29T04:17:28.716Z,24.87
2018-05-29T04:20:00.310Z,24.97
2018-05-29T04:22:29.990Z,24.70
2018-05-29T04:25:00.076Z,25.97
2018-05-29T04:27:28.966Z,24.67
2018-05-29T04:29:58.773Z,24.73
2018-05-29T04:32:27.067Z,23.50
2018-05-29T04:34:55.245Z,24.10
2018-05-29T04:37:24.605Z,25.20
2018-05-29T04:39:54.067Z,23.57
2018-05-29T04:42:21.753Z,23.70
2018-05-29T04:44:50.232Z,24.47
2018-05-29T04:47:20.877Z,25.43
2018-05-29T04:49:49.050Z,24.97
2018-05-29T04:52:17.084Z,24.57
2018-05-29T04:54:45.162Z,24.13
2018-05-29T04:57:17.119Z,24.73
2018-05-29T04:59:45.358Z,24.50
2018-05-29T05:02:15.637Z,25.13
2018-05-29T05:04:43.321Z,24.93
2018-05-29T05:07:11.064Z,24.20
2018-05-29T05:09:39.650Z,26.90
2018-05-29T05:12:07.789Z,24.60
2018-05-29T05:14:36.428Z,25.63
2018-05-29T05:17:04.075Z,26.80
2018-05-29T05:19:31.787Z,25.23
2018-05-29T05:22:04.772Z,26.83
2018-05-29T05:24:33.429Z,27.80
2018-05-29T05:27:03.427Z,25.50
2018-05-29T05:29:33.490Z,27.03
2018-05-29T05:32:01.840Z,27.23
2018-05-29T05:34:31.524Z,27.93
2018-05-29T05:37:00.665Z,26.00
2018-05-29T05:39:29.003Z,26.87
2018-05-29T05:41:58.945Z,25.93
2018-05-29T05:44:27.663Z,26.37
2018-05-29T05:46:56.146Z,26.50
2018-05-29T05:49:24.028Z,28.13
2018-05-29T05:51:53.167Z,25.60
2018-05-29T05:54:22.392Z,26.67
2018-05-29T05:56:50.249Z,25.57
2018-05-29T05:59:18.018Z,27.63
2018-05-29T06:01:47.897Z,26.07
2018-05-29T06:04:17.157Z,26.27
2018-05-29T06:06:47.676Z,26.33
2018-05-29T06:09:15.608Z,26.37
2018-05-29T06:11:43.294Z,26.43
2018-05-29T06:14:11.774Z,26.40
2018-05-29T06:16:43.381Z,26.30
2018-05-29T06:19:12.789Z,26.90
2018-05-29T06:21:40.891Z,27.23
2018-05-29T06:24:09.186Z,26.60
2018-05-29T06:26:36.972Z,26.67
2018-05-29T06:29:04.779Z,26.93
2018-05-29T06:31:32.870Z,26.37
2018-05-29T06:34:01.911Z,25.27
2018-05-29T06:36:30.227Z,25.13
2018-05-29T06:38:58.165Z,25.70
2018-05-29T06:41:26.581Z,24.93
2018-05-29T06:43:54.425Z,24.73
2018-05-29T06:46:24.568Z,24.20
2018-05-29T06:48:58.094Z,23.90
2018-05-29T06:51:26.063Z,24.87
2018-05-29T06:53:55.849Z,24.47
2018-05-29T06:56:27.784Z,22.77
2018-05-29T06:58:57.052Z,24.47
2018-05-29T07:01:24.997Z,22.87
2018-05-29T07:03:53.984Z,22.47
2018-05-29T07:06:23.900Z,22.53
2018-05-29T07:08:52.772Z,21.70
2018-05-29T07:11:21.091Z,22.50
2018-05-29T07:13:49.598Z,22.10
2018-05-29T07:16:18.481Z,22.30
2018-05-29T07:18:47.372Z,21.83
2018-05-29T07:21:15.634Z,20.73
2018-05-29T07:23:43.991Z,20.70
2018-05-29T07:26:13.834Z,21.40
2018-05-29T07:28:44.755Z,21.30
2018-05-29T07:31:12.528Z,22.40
2018-05-29T07:33:40.240Z,22.70
2018-05-29T07:36:11.166Z,22.83
2018-05-29T07:38:41.641Z,21.97
2018-05-29T07:41:10.109Z,20.23
2018-05-29T07:43:38.255Z,22.20
2018-05-29T07:46:07.359Z,23.20
2018-05-29T07:48:37.638Z,21.03
2018-05-29T07:51:06.237Z,21.23
2018-05-29T07:53:34.675Z,18.43
2018-05-29T07:56:04.305Z,18.80
2018-05-29T07:58:33.452Z,19.33
2018-05-29T08:01:03.645Z,19.00
2018-05-29T08:03:33.379Z,18.37
2018-05-29T08:06:01.630Z,17.77
2018-05-29T08:08:30.991Z,17.83
2018-05-29T08:10:59.088Z,17.47
2018-05-29T08:13:30.860Z,17.27
2018-05-29T08:15:58.988Z,16.30
2018-05-29T08:18:27.381Z,16.97
2018-05-29T08:20:55.986Z,16.47
2018-05-29T08:23:24.091Z,15.47
2018-05-29T08:25:52.980Z,14.27
2018-05-29T08:28:21.312Z,14.30
2018-05-29T08:30:50.368Z,15.20
2018-05-29T08:33:19.548Z,16.20
2018-05-29T08:35:51.649Z,15.23
2018-05-29T08:38:20.488Z,16.13
2018-05-29T08:40:49.691Z,15.63
2018-05-29T08:43:19.243Z,15.37
2018-05-29T08:45:50.021Z,16.60
2018-05-29T08:48:22.697Z,17.10
2018-05-29T08:50:53.025Z,16.23
2018-05-29T08:53:27.724Z,15.67
2018-05-29T08:55:56.518Z,15.37
2018-05-29T08:58:26.177Z,15.83
2018-05-29T09:00:54.287Z,16.50
2018-05-29T09:03:23.416Z,16.23
2018-05-29T09:05:52.973Z,14.90
2018-05-29T09:08:20.810Z,16.67
2018-05-29T09:10:49.571Z,16.27
2018-05-29T09:13:17.881Z,16.27
2018-05-29T09:15:47.983Z,15.77
2018-05-29T09:18:16.768Z,16.03
2018-05-29T09:20:45.199Z,16.40
2018-05-29T09:23:13.474Z,15.63
2018-05-29T09:25:41.928Z,17.23
2018-05-29T09:28:12.117Z,15.43
2018-05-29T09:30:40.240Z,15.87
2018-05-29T09:33:08.805Z,15.60
2018-05-29T09:35:37.593Z,16.03
2018-05-29T09:38:06.161Z,15.77
2018-05-29T09:40:34.629Z,14.30
2018-05-29T09:43:03.501Z,15.40
2018-05-29T09:45:32.398Z,14.37
2018-05-29T09:48:01.636Z,14.30
2018-05-29T09:50:30.085Z,14.53
2018-05-29T09:55:41.065Z,14.07
2018-05-29T09:58:10.021Z,14.13
2018-05-29T10:00:40.344Z,15.03
2018-05-29T10:03:09.036Z,15.03
2018-05-29T10:05:38.713Z,14.70
2018-05-29T10:08:10.499Z,14.10
2018-05-29T10:10:38.818Z,14.77
2018-05-29T10:15:44.471Z,14.37
2018-05-29T10:18:13.367Z,14.75
2018-05-29T10:20:42.301Z,15.60
2018-05-29T10:23:10.020Z,15.90
2018-05-29T10:25:37.816Z,14.30
2018-05-29T10:28:06.263Z,14.05
2018-05-29T10:30:34.712Z,14.70
2018-05-29T10:33:02.964Z,16.02
2018-05-29T10:35:31.346Z,15.57
2018-05-29T10:38:02.117Z,15.27
2018-05-29T10:40:30.453Z,15.00
2018-05-29T10:42:59.422Z,13.77
2018-05-29T10:45:28.373Z,15.82
2018-05-29T10:47:57.009Z,14.60
2018-05-29T10:50:26.128Z,15.40
2018-05-29T10:52:54.677Z,15.07
2018-05-29T10:55:22.874Z,15.68
2018-05-29T10:57:51.751Z,16.42
2018-05-29T11:00:21.049Z,15.25
2018-05-29T11:02:51.122Z,16.10
2018-05-29T11:05:22.948Z,16.60
2018-05-29T11:07:51.987Z,19.73
2018-05-29T11:10:26.136Z,17.52
2018-05-29T11:12:53.959Z,17.00
2018-05-29T11:15:22.232Z,18.08
2018-05-29T11:17:50.082Z,18.80
2018-05-29T11:20:19.210Z,17.83
2018-05-29T11:22:47.038Z,17.73
2018-05-29T11:25:15.352Z,17.70
2018-05-29T11:27:45.781Z,17.67
2018-05-29T11:30:13.568Z,16.42
2018-05-29T11:32:41.534Z,19.12
2018-05-29T11:35:15.033Z,17.73
2018-05-29T11:37:47.953Z,17.50
2018-05-29T11:40:15.798Z,17.35
2018-05-29T11:42:44.336Z,17.80
2018-05-29T11:45:15.406Z,17.60
2018-05-29T11:47:43.235Z,17.20
2018-05-29T11:50:11.084Z,16.25
2018-05-29T11:52:38.947Z,15.43
2018-05-29T11:55:07.512Z,15.43
2018-05-29T11:57:36.297Z,14.48
2018-05-29T12:00:04.056Z,16.25
2018-05-29T12:02:31.997Z,17.50
2018-05-29T12:05:02.149Z,16.52
2018-05-29T12:07:29.816Z,17.45
2018-05-29T12:09:57.716Z,17.92
2018-05-29T12:12:30.237Z,17.48
2018-05-29T12:14:59.340Z,17.73
2018-05-29T12:17:28.335Z,20.85
2018-05-29T12:19:58.272Z,16.75
2018-05-29T12:22:28.470Z,17.02
2018-05-29T12:24:56.231Z,17.33
2018-05-29T12:27:23.949Z,17.48
2018-05-29T12:29:56.011Z,17.33
2018-05-29T12:32:23.969Z,16.42
2018-05-29T12:34:52.753Z,15.88
2018-05-29T12:37:25.650Z,13.93
2018-05-29T12:39:54.237Z,12.82
2018-05-29T12:42:22.484Z,14.43
2018-05-29T12:44:51.710Z,14.30
2018-05-29T12:47:21.699Z,15.15
2018-05-29T12:49:51.795Z,14.45
2018-05-29T12:52:20.474Z,13.90
2018-05-29T12:54:48.702Z,12.73
2018-05-29T12:57:18.396Z,13.02
2018-05-29T12:59:48.091Z,12.98
2018-05-29T13:02:16.721Z,12.43
2018-05-29T13:04:44.501Z,12.43
2018-05-29T13:07:14.220Z,12.40
2018-05-29T13:09:45.496Z,12.20
2018-05-29T13:12:13.310Z,12.77
2018-05-29T13:14:41.189Z,13.95
2018-05-29T13:17:15.924Z,13.62
2018-05-29T13:19:48.139Z,13.93
2018-05-29T13:22:20.272Z,13.52
2018-05-29T13:24:49.459Z,13.65
2018-05-29T13:27:18.803Z,13.57
2018-05-29T13:29:55.239Z,13.88
2018-05-29T13:32:23.010Z,15.43
2018-05-29T13:34:52.019Z,13.98
2018-05-29T13:37:21.614Z,14.52
2018-05-29T13:39:49.469Z,15.68
2018-05-29T13:42:17.231Z,16.60
2018-05-29T13:44:45.020Z,15.27
2018-05-29T13:47:14.009Z,14.67
2018-05-29T13:49:43.156Z,15.40
2018-05-29T13:52:11.850Z,16.10
2018-05-29T13:54:39.597Z,15.97
2018-05-29T13:57:07.276Z,14.77
2018-05-29T13:59:35.409Z,15.07
2018-05-29T14:02:04.226Z,7.27
2018-05-29T14:04:31.982Z,7.10
2018-05-29T14:06:59.766Z,9.37
2018-05-29T14:09:27.589Z,8.90
2018-05-29T14:12:00.891Z,6.33
2018-05-29T14:14:29.481Z,6.87
2018-05-29T14:16:57.997Z,5.87
2018-05-29T14:19:25.742Z,7.67
2018-05-29T14:21:53.707Z,6.60
2018-05-29T14:24:21.457Z,6.37
2018-05-29T14:27:00.045Z,7.73
2018-05-29T14:29:32.483Z,10.10
2018-05-29T14:32:00.476Z,10.10
2018-05-29T14:34:28.369Z,6.83
2018-05-29T14:36:59.587Z,6.67
2018-05-29T14:39:28.441Z,8.37
2018-05-29T14:41:56.196Z,6.43
2018-05-29T14:44:24.035Z,6.27
2018-05-29T14:46:53.759Z,9.27
2018-05-29T14:49:22.841Z,5.80
2018-05-29T14:51:54.606Z,7.77
2018-05-29T14:54:26.389Z,7.27
2018-05-29T14:56:54.233Z,7.90
2018-05-29T14:59:22.792Z,7.30
2018-05-29T15:01:51.188Z,6.97
2018-05-29T15:04:26.563Z,6.80
2018-05-29T15:06:56.365Z,7.03
2018-05-29T15:09:24.240Z,6.77
2018-05-29T15:11:51.976Z,5.70
2018-05-29T15:14:21.759Z,6.50
2018-05-29T15:16:53.770Z,7.17
2018-05-29T15:19:21.656Z,7.50
2018-05-29T15:21:49.335Z,7.30
2018-05-29T15:24:22.649Z,7.77
2018-05-29T15:26:50.477Z,6.80
2018-05-29T15:29:18.259Z,5.77
2018-05-29T15:31:46.412Z,5.73
2018-05-29T15:34:15.209Z,6.47
2018-05-29T15:36:44.185Z,7.50
2018-05-29T15:39:13.160Z,8.87
2018-05-29T15:41:41.120Z,6.20
2018-05-29T15:44:08.898Z,9.20
2018-05-29T15:46:38.700Z,6.17
2018-05-29T15:49:08.652Z,7.33
2018-05-29T15:51:37.123Z,6.00
2018-05-29T15:54:05.069Z,6.93
2018-05-29T15:56:37.636Z,6.63
2018-05-29T15:59:07.055Z,7.73
2018-05-29T16:01:35.490Z,6.67
2018-05-29T16:04:04.681Z,5.97
2018-05-29T16:06:32.449Z,8.63
2018-05-29T16:09:00.339Z,6.10
2018-05-29T16:11:28.256Z,6.30
2018-05-29T16:14:00.393Z,6.40
2018-05-29T16:16:30.389Z,6.80
2018-05-29T16:19:01.175Z,7.37
2018-05-29T16:21:32.435Z,9.33
2018-05-29T16:24:06.568Z,7.30
2018-05-29T16:26:34.404Z,7.50
2018-05-29T16:29:02.198Z,9.80
2018-05-29T16:31:32.244Z,8.67
2018-05-29T16:34:01.932Z,8.37
2018-05-29T16:36:31.968Z,7.77
2018-05-29T16:39:01.152Z,8.10
2018-05-29T16:41:29.512Z,8.53
2018-05-29T16:44:00.727Z,9.33
2018-05-29T16:46:30.151Z,9.33
2018-05-29T16:48:59.754Z,7.53
2018-05-29T16:51:30.172Z,8.20
2018-05-29T16:54:00.765Z,8.60
2018-05-29T16:56:32.340Z,8.57
2018-05-29T16:59:00.076Z,9.73
2018-05-29T17:01:28.008Z,8.57
2018-05-29T17:03:57.954Z,11.73
2018-05-29T17:06:29.035Z,9.20
2018-05-29T17:08:56.836Z,9.37
2018-05-29T17:11:24.565Z,12.07
2018-05-29T17:13:52.255Z,11.43
2018-05-29T17:16:20.953Z,11.07
2018-05-29T17:18:48.615Z,10.33
2018-05-29T17:21:16.278Z,10.87
2018-05-29T17:23:43.941Z,9.57
2018-05-29T17:26:13.642Z,10.17
2018-05-29T17:28:41.338Z,12.63
2018-05-29T17:31:14.960Z,13.53
2018-05-29T17:33:42.619Z,11.63
2018-05-29T17:36:10.319Z,11.60
2018-05-29T17:38:43.309Z,11.33
2018-05-29T17:41:11.753Z,12.20
2018-05-29T17:43:39.471Z,11.87
2018-05-29T17:46:13.755Z,13.03
2018-05-29T17:48:43.549Z,11.60
2018-05-29T17:51:14.200Z,14.13
2018-05-29T17:53:45.513Z,12.87
2018-05-29T17:56:13.354Z,14.77
2018-05-29T17:58:41.067Z,13.87
2018-05-29T18:01:15.673Z,13.57
2018-05-29T18:03:43.395Z,13.60
2018-05-29T18:06:11.127Z,13.50
2018-05-29T18:08:40.498Z,13.97
2018-05-29T18:11:12.042Z,14.83
2018-05-29T18:13:41.685Z,13.33
2018-05-29T18:16:15.019Z,12.80
2018-05-29T18:18:45.752Z,12.87
2018-05-29T18:21:13.457Z,14.90
2018-05-29T18:23:41.225Z,13.93
2018-05-29T18:26:14.054Z,12.73
2018-05-29T18:28:50.709Z,14.90
2018-05-29T18:31:26.227Z,14.03
2018-05-29T18:33:56.629Z,14.67
2018-05-29T18:36:26.700Z,14.40
2018-05-29T18:38:57.773Z,14.23
2018-05-29T18:41:27.885Z,14.77
2018-05-29T18:44:00.423Z,14.67
2018-05-29T18:46:31.772Z,15.13
2018-05-29T18:48:59.601Z,16.23
2018-05-29T18:51:27.511Z,16.67
2018-05-29T18:53:59.677Z,16.73
2018-05-29T18:56:27.476Z,15.73
2018-05-29T18:58:55.298Z,16.23
2018-05-29T19:01:24.202Z,16.77
2018-05-29T19:03:58.765Z,17.93
2018-05-29T19:06:26.488Z,17.00
2018-05-29T19:08:54.205Z,17.30
2018-05-29T19:11:23.366Z,18.77
2018-05-29T19:13:51.104Z,18.30
2018-05-29T19:16:18.880Z,17.17
2018-05-29T19:18:51.438Z,17.93
2018-05-29T19:21:24.176Z,17.43
2018-05-29T19:23:51.883Z,17.47
2018-05-29T19:26:19.715Z,17.13
2018-05-29T19:28:51.365Z,17.53
2018-05-29T19:31:19.095Z,17.93
2018-05-29T19:33:47.096Z,17.20
2018-05-29T19:36:14.860Z,19.23
2018-05-29T19:38:42.569Z,18.73
2018-05-29T19:41:13.451Z,19.43
2018-05-29T19:43:46.851Z,19.33
2018-05-29T19:46:19.954Z,20.23
2018-05-29T19:48:47.744Z,20.87
2018-05-29T19:51:15.446Z,22.40
2018-05-29T19:53:43.269Z,22.37
2018-05-29T19:56:14.742Z,22.73
2018-05-29T19:58:42.635Z,22.30
2018-05-29T20:01:10.352Z,22.50
2018-05-29T20:03:41.359Z,23.97
2018-05-29T20:06:08.997Z,23.33
2018-05-29T20:08:36.844Z,25.00
2018-05-29T20:11:04.525Z,23.37
2018-05-29T20:13:32.320Z,23.63
2018-05-29T20:16:00.830Z,23.30
2018-05-29T20:18:28.511Z,23.83
2018-05-29T20:21:01.045Z,23.57
2018-05-29T20:23:36.335Z,25.07
2018-05-29T20:26:04.051Z,25.63
2018-05-29T20:28:31.831Z,25.80
2018-05-29T20:31:00.237Z,24.30
2018-05-29T20:33:27.950Z,22.97
2018-05-29T20:35:55.649Z,24.03
2018-05-29T20:38:23.318Z,23.40
2018-05-29T20:40:51.013Z,23.17
2018-05-29T20:43:23.399Z,24.00
2018-05-29T20:45:54.053Z,23.27
2018-05-29T20:48:21.950Z,21.77
2018-05-29T20:50:49.745Z,21.73
2018-05-29T20:53:22.182Z,21.27
2018-05-29T20:55:50.166Z,22.77
2018-05-29T20:58:18.249Z,22.60
2018-05-29T21:00:50.520Z,23.13
2018-05-29T21:03:18.271Z,26.07
2018-05-29T21:05:45.925Z,28.43
2018-05-29T21:08:14.866Z,24.97
2018-05-29T21:10:45.440Z,28.20
2018-05-29T21:13:19.472Z,27.80
2018-05-29T21:15:52.223Z,28.23
2018-05-29T21:18:25.766Z,29.07
2018-05-29T21:20:57.059Z,29.37
2018-05-29T21:23:29.963Z,30.80
2018-05-29T21:26:02.828Z,30.63
2018-05-29T21:28:33.200Z,32.77
2018-05-29T21:31:05.226Z,31.90
2018-05-29T21:33:35.971Z,33.77
2018-05-29T21:36:09.811Z,36.50
2018-05-29T21:38:40.767Z,39.87
2018-05-29T21:41:11.995Z,40.37
2018-05-29T21:43:42.776Z,40.93
2018-05-29T21:46:14.869Z,41.13
2018-05-29T21:48:46.148Z,39.73
2018-05-29T21:51:18.999Z,40.00
2018-05-29T21:53:46.799Z,41.63
2018-05-29T21:56:14.509Z,43.93
2018-05-29T21:58:47.060Z,44.83
2018-05-29T22:01:17.027Z,44.33
2018-05-29T22:03:44.768Z,43.10
2018-05-29T22:06:17.149Z,46.37
2018-05-29T22:08:49.131Z,47.57
2018-05-29T22:11:23.548Z,48.40
2018-05-29T22:13:55.466Z,49.70
2018-05-29T22:16:28.108Z,46.20
2018-05-29T22:18:55.808Z,49.07
2018-05-29T22:21:24.393Z,48.13
2018-05-29T22:23:57.481Z,47.17
2018-05-29T22:26:29.135Z,48.37
2018-05-29T22:29:01.939Z,46.23
2018-05-29T22:31:32.204Z,48.20
2018-05-29T22:34:03.976Z,41.83
2018-05-29T22:39:09.312Z,41.37
2018-05-29T22:41:37.048Z,40.77
2018-05-29T22:44:07.687Z,40.93
2018-05-29T22:46:35.461Z,38.37
2018-05-29T22:49:03.108Z,37.13
2018-05-29T22:51:35.558Z,38.03
2018-05-29T22:54:07.133Z,38.77
2018-05-29T22:56:40.533Z,41.00
2018-05-29T22:59:08.253Z,40.30
2018-05-29T23:01:35.933Z,39.33
2018-05-29T23:04:07.997Z,40.23
2018-05-29T23:06:40.368Z,39.37
2018-05-29T23:09:10.937Z,40.43
2018-05-29T23:11:38.687Z,38.73
2018-05-29T23:14:06.396Z,39.97
2018-05-29T23:16:40.871Z,41.47
2018-05-29T23:19:09.385Z,37.47
2018-05-29T23:21:37.064Z,37.73
2018-05-29T23:24:08.927Z,39.90
2018-05-29T23:26:39.848Z,40.10
2018-05-29T23:29:09.997Z,37.03
2018-05-29T23:31:39.258Z,38.40
2018-05-29T23:34:11.833Z,38.60
2018-05-29T23:36:46.132Z,43.17
2018-05-29T23:39:20.324Z,42.17
2018-05-29T23:41:53.090Z,39.50
2018-05-29T23:44:20.849Z,40.77
2018-05-29T23:46:48.548Z,38.50
2018-05-29T23:49:21.120Z,41.20
2018-05-29T23:51:54.215Z,39.63
2018-05-29T23:54:22.265Z,39.47
2018-05-29T23:56:49.882Z,40.50
2018-05-29T23:59:21.142Z,38.03
